Time;durP1;ratioP1;P1;durP2;ratioP2;P2;SDS_P1;SDS_P2;PMS_P1;PMS_P2;Temp;Humidity;BMP_temperature;BMP_pressure;BME280_temperature;BME280_humidity;BME280_pressure;Samples;Min_cycle;Max_cycle;Signal;HPM_P1;HPM_P2
2024/01/02 00:01:00;;;;;;;12.35;2.80;;;;;;;-143.54;100.00;59916.91;5075250;28;20024;-80
2024/01/02 00:03:25;;;;;;;14.68;2.58;;;;;;;-143.54;100.00;59916.91;5077111;28;20028;-80
2024/01/02 00:05:51;;;;;;;16.48;2.85;;;;;;;-143.54;100.00;59916.91;5081485;28;20035;-80
2024/01/02 00:08:16;;;;;;;14.93;3.35;;;;;;;-143.54;100.00;59916.91;5075139;28;20087;-80
2024/01/02 00:10:41;;;;;;;13.63;3.03;;;;;;;-143.54;100.00;59916.91;5083340;28;20046;-80
2024/01/02 00:13:07;;;;;;;8.52;2.83;;;;;;;-143.54;100.00;59916.91;5076334;28;20037;-80
2024/01/02 00:15:32;;;;;;;11.82;2.70;;;;;;;-143.54;100.00;59916.91;5080966;28;20028;-80
2024/01/02 00:17:58;;;;;;;8.98;2.42;;;;;;;-143.54;100.00;59916.91;5079685;28;20507;-80
2024/01/02 00:20:23;;;;;;;8.07;2.33;;;;;;;-143.54;100.00;59916.91;5072981;28;20021;-80
2024/01/02 00:22:48;;;;;;;12.50;2.45;;;;;;;-143.54;100.00;59916.91;5073234;28;20059;-80
2024/01/02 00:25:14;;;;;;;10.10;2.47;;;;;;;-143.54;100.00;59916.91;5075626;28;20438;-80
2024/01/02 00:27:40;;;;;;;10.52;2.38;;;;;;;-143.54;100.00;59916.91;5080612;28;20048;-80
2024/01/02 00:30:05;;;;;;;8.77;2.28;;;;;;;-143.54;100.00;59916.91;5077705;28;20568;-80
2024/01/02 00:32:31;;;;;;;9.13;2.47;;;;;;;-143.54;100.00;59916.91;5080259;28;20032;-80
2024/01/02 00:34:57;;;;;;;13.60;2.85;;;;;;;-143.54;100.00;59916.91;5075685;28;20025;-80
2024/01/02 00:37:23;;;;;;;10.90;2.55;;;;;;;-143.54;100.00;59916.91;5078939;28;20476;-80
2024/01/02 00:39:49;;;;;;;10.13;2.10;;;;;;;-143.54;100.00;59916.91;5074938;28;20479;-80
2024/01/02 00:42:14;;;;;;;11.63;2.58;;;;;;;-143.54;100.00;59916.91;5072441;28;20035;-80
2024/01/02 00:44:39;;;;;;;12.75;2.20;;;;;;;-143.54;100.00;59916.91;5076712;28;20039;-80
2024/01/02 00:47:04;;;;;;;8.27;1.90;;;;;;;-143.54;100.00;59916.91;5080308;28;20032;-80
2024/01/02 00:49:30;;;;;;;13.98;2.05;;;;;;;-143.54;100.00;59916.91;5072481;28;20400;-80
2024/01/02 00:51:55;;;;;;;7.20;1.65;;;;;;;-143.54;100.00;59916.91;5075809;28;20033;-80
2024/01/02 00:54:20;;;;;;;5.20;2.00;;;;;;;-143.54;100.00;59916.91;5073765;28;20158;-80
2024/01/02 00:56:45;;;;;;;7.68;1.52;;;;;;;-143.54;100.00;59916.91;5078265;28;20124;-80
2024/01/02 00:59:13;;;;;;;8.38;1.98;;;;;;;-143.54;100.00;59916.91;5073311;28;20025;-80
2024/01/02 01:01:38;;;;;;;8.98;2.00;;;;;;;-143.54;100.00;59916.91;5073740;28;20448;-80
2024/01/02 01:04:04;;;;;;;4.63;1.73;;;;;;;-143.54;100.00;59916.91;5077126;28;20055;-80
2024/01/02 01:06:29;;;;;;;4.93;1.52;;;;;;;-143.54;100.00;59916.91;5071806;28;20036;-80
2024/01/02 01:08:54;;;;;;;5.53;1.58;;;;;;;-143.54;100.00;59916.91;5079142;28;20012;-80
2024/01/02 01:11:20;;;;;;;9.43;1.65;;;;;;;-143.54;100.00;59916.91;5070888;28;20469;-80
2024/01/02 01:13:45;;;;;;;3.53;1.50;;;;;;;-143.54;100.00;59916.91;5076807;28;20115;-80
2024/01/02 01:16:11;;;;;;;6.50;1.60;;;;;;;-143.54;100.00;59916.91;5075770;28;20021;-79
2024/01/02 01:18:36;;;;;;;7.03;1.35;;;;;;;-143.54;100.00;59916.91;5073613;28;20109;-80
2024/01/02 01:21:02;;;;;;;2.15;1.13;;;;;;;-143.54;100.00;59916.91;5076875;28;20028;-80
2024/01/02 01:23:28;;;;;;;7.75;1.50;;;;;;;-143.54;100.00;59916.91;5072465;28;20547;-80
2024/01/02 01:25:54;;;;;;;6.60;1.33;;;;;;;-143.54;100.00;59916.91;5078336;28;20032;-80
2024/01/02 01:28:19;;;;;;;7.90;1.67;;;;;;;-143.54;100.00;59916.91;5072964;28;20115;-80
2024/01/02 01:30:44;;;;;;;5.47;1.55;;;;;;;-143.54;100.00;59916.91;5074398;28;20024;-80
2024/01/02 01:33:10;;;;;;;4.35;1.40;;;;;;;-143.54;100.00;59916.91;5076638;28;20028;-80
2024/01/02 01:35:35;;;;;;;4.43;1.20;;;;;;;-143.54;100.00;59916.91;5076230;28;20039;-80
2024/01/02 01:38:01;;;;;;;4.65;1.00;;;;;;;-143.54;100.00;59916.91;5077819;28;20016;-80
2024/01/02 01:40:26;;;;;;;5.10;1.30;;;;;;;-143.54;100.00;59916.91;5071796;28;20452;-80
2024/01/02 01:42:52;;;;;;;1.75;1.00;;;;;;;-143.54;100.00;59916.91;5079678;28;20048;-80
2024/01/02 01:45:18;;;;;;;5.75;1.05;;;;;;;-143.54;100.00;59916.91;5075243;28;20360;-80
2024/01/02 01:47:44;;;;;;;1.27;0.88;;;;;;;-143.54;100.00;59916.91;5072559;28;20028;-80
2024/01/02 01:50:10;;;;;;;3.78;1.00;;;;;;;-143.54;100.00;59916.91;5072318;28;20028;-80
2024/01/02 01:52:36;;;;;;;1.95;0.90;;;;;;;-143.54;100.00;59916.91;5077253;28;20035;-80
2024/01/02 01:55:02;;;;;;;2.45;1.00;;;;;;;-143.54;100.00;59916.91;5075623;28;20093;-80
2024/01/02 01:57:28;;;;;;;2.42;0.75;;;;;;;-143.54;100.00;59916.91;5077672;28;20039;-80
2024/01/02 01:59:54;;;;;;;3.90;0.73;;;;;;;-143.54;100.00;59916.91;5073913;28;20073;-80
2024/01/02 02:02:20;;;;;;;2.58;0.95;;;;;;;-143.54;100.00;59916.91;5072217;28;20103;-80
2024/01/02 02:04:49;;;;;;;2.28;1.00;;;;;;;-143.54;100.00;59916.91;5076369;28;20496;-81
2024/01/02 02:07:14;;;;;;;1.23;0.80;;;;;;;-143.54;100.00;59916.91;5077646;28;20032;-80
2024/01/02 02:09:40;;;;;;;2.08;0.80;;;;;;;-143.54;100.00;59916.91;5076753;28;20029;-80
2024/01/02 02:12:06;;;;;;;1.92;0.90;;;;;;;-143.54;100.00;59916.91;5074940;28;20491;-80
2024/01/02 02:14:32;;;;;;;1.60;0.70;;;;;;;-143.54;100.00;59916.91;5070247;28;20119;-80
2024/01/02 02:16:57;;;;;;;1.38;0.70;;;;;;;-143.54;100.00;59916.91;5080011;28;20399;-80
2024/01/02 02:19:23;;;;;;;1.25;0.80;;;;;;;-143.54;100.00;59916.91;5073825;28;20028;-80
2024/01/02 02:21:51;;;;;;;1.17;0.95;;;;;;;-143.54;100.00;59916.91;5077022;28;20024;-80
2024/01/02 02:24:17;;;;;;;1.65;0.70;;;;;;;-143.54;100.00;59916.91;5076277;28;20039;-81
2024/01/02 02:26:42;;;;;;;1.70;0.70;;;;;;;-143.54;100.00;59916.91;5070968;28;20040;-80
2024/01/02 02:29:09;;;;;;;3.50;0.80;;;;;;;-143.54;100.00;59916.91;5076228;28;20123;-80
2024/01/02 02:31:35;;;;;;;0.73;0.60;;;;;;;-143.54;100.00;59916.91;5078039;28;20449;-80
2024/01/02 02:34:00;;;;;;;1.17;0.50;;;;;;;-143.54;100.00;59916.91;5073504;28;20134;-80
2024/01/02 02:36:26;;;;;;;1.08;0.82;;;;;;;-143.54;100.00;59916.91;5074693;28;20082;-80
2024/01/02 02:38:51;;;;;;;2.25;1.00;;;;;;;-143.54;100.00;59916.91;5073672;28;20035;-80
2024/01/02 02:41:17;;;;;;;0.82;0.60;;;;;;;-143.54;100.00;59916.91;5078326;28;20024;-80
2024/01/02 02:43:42;;;;;;;1.98;0.80;;;;;;;-143.54;100.00;59916.91;5068530;28;20476;-80
2024/01/02 02:46:07;;;;;;;0.95;0.77;;;;;;;-143.54;100.00;59916.91;5074478;28;20058;-80
2024/01/02 02:48:32;;;;;;;4.05;0.77;;;;;;;-143.54;100.00;59916.91;5073419;28;20483;-80
2024/01/02 02:50:58;;;;;;;2.33;0.70;;;;;;;-143.54;100.00;59916.91;5070782;28;20047;-80
2024/01/02 02:53:23;;;;;;;3.30;0.73;;;;;;;-143.54;100.00;59916.91;5071382;28;20436;-80
2024/01/02 02:55:48;;;;;;;3.08;0.50;;;;;;;-143.54;100.00;59916.91;5073711;28;20078;-80
2024/01/02 02:58:13;;;;;;;0.90;0.60;;;;;;;-143.54;100.00;59916.91;5073642;28;20028;-80
2024/01/02 03:00:39;;;;;;;2.53;0.60;;;;;;;-143.54;100.00;59916.91;5074145;28;20033;-80
2024/01/02 03:03:04;;;;;;;0.88;0.68;;;;;;;-143.54;100.00;59916.91;5071342;28;20040;-80
2024/01/02 03:05:30;;;;;;;1.02;0.50;;;;;;;-143.54;100.00;59916.91;5077812;28;20036;-80
2024/01/02 03:07:57;;;;;;;0.85;0.57;;;;;;;-143.54;100.00;59916.91;5068890;28;20025;-80
2024/01/02 03:10:23;;;;;;;0.80;0.60;;;;;;;-143.54;100.00;59916.91;5071846;28;20527;-80
2024/01/02 03:12:49;;;;;;;0.73;0.60;;;;;;;-143.54;100.00;59916.91;5068702;28;20024;-80
2024/01/02 03:15:14;;;;;;;1.45;0.65;;;;;;;-143.54;100.00;59916.91;5074539;28;20032;-80
2024/01/02 03:17:40;;;;;;;3.42;0.60;;;;;;;-143.54;100.00;59916.91;5077197;28;20063;-80
2024/01/02 03:20:06;;;;;;;0.93;0.88;;;;;;;-143.54;100.00;59916.91;5072185;28;20028;-80
2024/01/02 03:22:31;;;;;;;1.00;0.50;;;;;;;-143.54;100.00;59916.91;5070751;28;20035;-80
2024/01/02 03:24:57;;;;;;;0.85;0.60;;;;;;;-143.54;100.00;59916.91;5071213;28;20387;-80
2024/01/02 03:27:22;;;;;;;0.98;0.40;;;;;;;-143.54;100.00;59916.91;5078445;28;20544;-80
2024/01/02 03:29:48;;;;;;;1.10;0.55;;;;;;;-143.54;100.00;59916.91;5075064;28;20024;-80
2024/01/02 03:32:13;;;;;;;0.60;0.57;;;;;;;-143.54;100.00;59916.91;5071106;28;20033;-80
2024/01/02 03:34:39;;;;;;;0.70;0.55;;;;;;;-143.54;100.00;59916.91;5066739;28;20059;-80
2024/01/02 03:37:04;;;;;;;2.47;0.60;;;;;;;-143.54;100.00;59916.91;5073952;28;20069;-80
2024/01/02 03:39:30;;;;;;;0.75;0.60;;;;;;;-143.54;100.00;59916.91;5072040;28;20042;-80
2024/01/02 03:41:55;;;;;;;0.75;0.50;;;;;;;-143.54;100.00;59916.91;5074121;28;20093;-80
2024/01/02 03:44:20;;;;;;;1.15;0.55;;;;;;;-143.54;100.00;59916.91;5071132;28;20021;-80
2024/01/02 03:46:46;;;;;;;0.50;0.50;;;;;;;-143.54;100.00;59916.91;5073359;28;20029;-80
2024/01/02 03:49:11;;;;;;;0.40;0.40;;;;;;;-143.54;100.00;59916.91;5074506;28;20028;-79
2024/01/02 03:51:37;;;;;;;0.60;0.50;;;;;;;-143.54;100.00;59916.91;5073126;28;20060;-80
2024/01/02 03:54:02;;;;;;;1.00;0.50;;;;;;;-143.54;100.00;59916.91;5074070;28;20021;-80
2024/01/02 03:56:27;;;;;;;1.52;0.52;;;;;;;-143.54;100.00;59916.91;5073975;28;20407;-79
2024/01/02 03:58:53;;;;;;;1.02;0.80;;;;;;;-143.54;100.00;59916.91;5073557;28;20052;-79
2024/01/02 04:01:18;;;;;;;1.02;0.60;;;;;;;-143.54;100.00;59916.91;5073045;28;20472;-80
2024/01/02 04:03:43;;;;;;;1.38;1.08;;;;;;;-143.54;100.00;59916.91;5073399;28;20127;-80
2024/01/02 04:06:08;;;;;;;1.27;0.90;;;;;;;-143.54;100.00;59916.91;5072981;28;20086;-80
2024/01/02 04:08:36;;;;;;;1.05;0.90;;;;;;;-143.54;100.00;59916.91;5073323;28;20385;-80
2024/01/02 04:11:02;;;;;;;1.55;1.13;;;;;;;-143.54;100.00;59916.91;5071763;28;20104;-80
2024/01/02 04:13:27;;;;;;;1.17;1.08;;;;;;;-143.54;100.00;59916.91;5072710;28;20107;-80
2024/01/02 04:15:52;;;;;;;1.20;1.10;;;;;;;-143.54;100.00;59916.91;5073308;28;20032;-79
2024/01/02 04:18:18;;;;;;;1.20;1.10;;;;;;;-143.54;100.00;59916.91;5073363;28;20055;-80
2024/01/02 04:20:43;;;;;;;1.25;1.10;;;;;;;-143.54;100.00;59916.91;5072458;28;20055;-80
2024/01/02 04:23:08;;;;;;;1.02;0.95;;;;;;;-143.54;100.00;59916.91;5073658;28;20064;-79
2024/01/02 04:25:34;;;;;;;1.63;1.25;;;;;;;-143.54;100.00;59916.91;5072224;28;20484;-80
2024/01/02 04:27:59;;;;;;;1.38;1.10;;;;;;;-143.54;100.00;59916.91;5072237;28;20451;-79
2024/01/02 04:30:25;;;;;;;1.20;1.10;;;;;;;-143.54;100.00;59916.91;5073101;28;20360;-79
2024/01/02 04:32:51;;;;;;;1.20;1.10;;;;;;;-143.54;100.00;59916.91;5073043;28;20024;-80
2024/01/02 04:35:17;;;;;;;1.10;1.00;;;;;;;-143.54;100.00;59916.91;5072401;28;20031;-80
2024/01/02 04:37:42;;;;;;;1.25;1.15;;;;;;;-143.54;100.00;59916.91;5073237;28;20021;-80
2024/01/02 04:40:10;;;;;;;2.67;1.30;;;;;;;-143.54;100.00;59916.91;5072951;28;20024;-79
2024/01/02 04:42:36;;;;;;;1.08;0.98;;;;;;;-143.54;100.00;59916.91;5072617;28;20033;-80
2024/01/02 04:45:03;;;;;;;1.30;1.20;;;;;;;-143.54;100.00;59916.91;5073393;28;20024;-79
2024/01/02 04:47:28;;;;;;;1.30;1.10;;;;;;;-143.54;100.00;59916.91;5076206;28;20422;-79
2024/01/02 04:49:54;;;;;;;1.20;1.08;;;;;;;-143.54;100.00;59916.91;5073267;28;20108;-79
2024/01/02 04:52:19;;;;;;;2.40;1.10;;;;;;;-143.54;100.00;59916.91;5085961;28;20141;-79
2024/01/02 04:54:45;;;;;;;2.35;1.55;;;;;;;-143.54;100.00;59916.91;5079241;28;20511;-80
2024/01/02 04:57:11;;;;;;;1.27;1.05;;;;;;;-143.54;100.00;59916.91;5077449;28;20376;-80
2024/01/02 04:59:36;;;;;;;1.10;1.00;;;;;;;-143.54;100.00;59916.91;5067381;28;20033;-79
2024/01/02 05:02:01;;;;;;;1.15;1.00;;;;;;;-143.54;100.00;59916.91;5075683;28;20032;-79
2024/01/02 05:04:26;;;;;;;16.52;1.65;;;;;;;-143.54;100.00;59916.91;5076081;28;20059;-79
2024/01/02 05:06:52;;;;;;;2.30;1.10;;;;;;;-143.54;100.00;59916.91;5071957;28;20419;-79
2024/01/02 05:09:17;;;;;;;1.25;0.90;;;;;;;-143.54;100.00;59916.91;5074508;28;20052;-80
2024/01/02 05:11:42;;;;;;;1.33;1.23;;;;;;;-143.54;100.00;59916.91;5078571;28;20040;-79
2024/01/02 05:14:08;;;;;;;1.33;1.10;;;;;;;-143.54;100.00;59916.91;5073190;28;20044;-79
2024/01/02 05:16:33;;;;;;;1.38;1.27;;;;;;;-143.54;100.00;59916.91;5073360;28;20020;-79
2024/01/02 05:18:58;;;;;;;1.50;1.17;;;;;;;-143.54;100.00;59916.91;5081225;28;20479;-79
2024/01/02 05:21:24;;;;;;;1.30;1.20;;;;;;;-143.54;100.00;59916.91;5072116;28;20032;-80
2024/01/02 05:23:49;;;;;;;1.60;1.27;;;;;;;-143.54;100.00;59916.91;5073535;28;20023;-79
2024/01/02 05:26:14;;;;;;;1.60;1.40;;;;;;;-143.54;100.00;59916.91;5076683;28;20447;-79
2024/01/02 05:28:39;;;;;;;3.67;1.42;;;;;;;-143.54;100.00;59916.91;5073448;28;20040;-79
2024/01/02 05:31:05;;;;;;;1.90;1.60;;;;;;;-143.54;100.00;59916.91;5078067;28;20449;-79
2024/01/02 05:33:31;;;;;;;3.28;1.42;;;;;;;-143.54;100.00;59916.91;5079099;28;20036;-79
2024/01/02 05:35:56;;;;;;;1.90;1.60;;;;;;;-143.54;100.00;59916.91;5078280;28;20032;-79
2024/01/02 05:38:22;;;;;;;1.85;1.38;;;;;;;-143.54;100.00;59916.91;5071853;28;20368;-80
2024/01/02 05:40:48;;;;;;;2.72;1.75;;;;;;;-143.54;100.00;59916.91;5076419;28;20025;-79
2024/01/02 05:43:13;;;;;;;3.47;1.85;;;;;;;-143.54;100.00;59916.91;5075735;28;20036;-79
2024/01/02 05:45:38;;;;;;;3.08;1.85;;;;;;;-143.54;100.00;59916.91;5075029;28;20047;-79
2024/01/02 05:48:04;;;;;;;1.48;1.33;;;;;;;-143.54;100.00;59916.91;5082140;28;20024;-79
2024/01/02 05:50:29;;;;;;;1.90;1.60;;;;;;;-143.54;100.00;59916.91;5071567;28;20536;-79
2024/01/02 05:52:55;;;;;;;2.65;1.50;;;;;;;-143.54;100.00;59916.91;5077283;28;20787;-78
2024/01/02 05:55:21;;;;;;;1.52;1.33;;;;;;;-143.54;100.00;59916.91;5071579;28;20492;-79
2024/01/02 05:57:46;;;;;;;3.05;1.45;;;;;;;-143.54;100.00;59916.91;5074602;28;20077;-79
2024/01/02 06:00:12;;;;;;;1.58;1.20;;;;;;;-143.54;100.00;59916.91;5071721;28;20362;-79
2024/01/02 06:02:37;;;;;;;1.77;1.20;;;;;;;-143.54;100.00;59916.91;5073442;28;20067;-78
2024/01/02 06:05:03;;;;;;;1.40;1.10;;;;;;;-143.54;100.00;59916.91;5077582;28;20029;-79
2024/01/02 06:07:28;;;;;;;1.65;1.13;;;;;;;-143.54;100.00;59916.91;5069772;28;20025;-79
2024/01/02 06:09:53;;;;;;;1.58;1.10;;;;;;;-143.54;100.00;59916.91;5078249;28;20055;-79
2024/01/02 06:12:19;;;;;;;1.35;1.20;;;;;;;-143.54;100.00;59916.91;5077127;28;20035;-78
2024/01/02 06:14:44;;;;;;;1.90;0.90;;;;;;;-143.54;100.00;59916.91;5075139;28;20027;-79
2024/01/02 06:17:11;;;;;;;1.05;0.95;;;;;;;-143.54;100.00;59916.91;5073616;28;20106;-79
2024/01/02 06:19:36;;;;;;;1.30;1.10;;;;;;;-143.54;100.00;59916.91;5071683;28;20028;-79
2024/01/02 06:22:02;;;;;;;2.92;0.90;;;;;;;-143.54;100.00;59916.91;5078657;28;20040;-79
2024/01/02 06:24:27;;;;;;;1.20;1.02;;;;;;;-143.54;100.00;59916.91;5075683;28;20086;-78
2024/01/02 06:26:53;;;;;;;1.15;1.05;;;;;;;-143.54;100.00;59916.91;5070874;28;20057;-79
2024/01/02 06:29:18;;;;;;;2.50;1.42;;;;;;;-143.54;100.00;59916.91;5072720;28;20082;-78
2024/01/02 06:31:43;;;;;;;2.22;1.55;;;;;;;-143.54;100.00;59916.91;5077836;28;20099;-78
2024/01/02 06:34:09;;;;;;;2.95;2.00;;;;;;;-143.54;100.00;59916.91;5070447;28;20135;-79
2024/01/02 06:36:34;;;;;;;2.42;1.77;;;;;;;-143.54;100.00;59916.91;5079250;28;20525;-79
2024/01/02 06:38:59;;;;;;;4.80;2.60;;;;;;;-143.54;100.00;59916.91;5075495;28;20027;-79
2024/01/02 06:41:25;;;;;;;5.07;2.80;;;;;;;-143.54;100.00;59916.91;5074194;28;20411;-78
2024/01/02 06:43:50;;;;;;;7.60;3.20;;;;;;;-143.54;100.00;59916.91;5072362;28;20032;-78
2024/01/02 06:46:15;;;;;;;5.75;3.00;;;;;;;-143.54;100.00;59916.91;5080536;28;20371;-78
2024/01/02 06:48:42;;;;;;;5.50;3.38;;;;;;;-143.54;100.00;59916.91;5073432;28;20028;-78
2024/01/02 06:51:07;;;;;;;7.35;3.25;;;;;;;-143.54;100.00;59916.91;5073703;28;20021;-79
2024/01/02 06:53:32;;;;;;;6.95;4.03;;;;;;;-143.54;100.00;59916.91;5071933;28;20396;-78
2024/01/02 06:55:58;;;;;;;9.27;4.57;;;;;;;-143.54;100.00;59916.91;5083521;28;20036;-78
2024/01/02 06:58:23;;;;;;;8.15;3.97;;;;;;;-143.54;100.00;59916.91;5073595;28;20035;-78
2024/01/02 07:00:48;;;;;;;11.55;5.70;;;;;;;-143.54;100.00;59916.91;5072206;28;20017;-79
2024/01/02 07:03:13;;;;;;;12.15;4.97;;;;;;;-143.54;100.00;59916.91;5076896;28;20173;-78
2024/01/02 07:05:39;;;;;;;11.70;5.03;;;;;;;-143.54;100.00;59916.91;5079959;28;20479;-78
2024/01/02 07:08:05;;;;;;;13.57;5.88;;;;;;;-143.54;100.00;59916.91;5075841;28;20021;-79
2024/01/02 07:10:30;;;;;;;16.80;5.60;;;;;;;-143.54;100.00;59916.91;5080814;28;20035;-79
2024/01/02 07:12:56;;;;;;;11.02;5.45;;;;;;;-143.54;100.00;59916.91;5082784;28;20032;-79
2024/01/02 07:15:21;;;;;;;14.30;6.18;;;;;;;-143.54;100.00;59916.91;5074097;28;20032;-79
2024/01/02 07:17:48;;;;;;;16.30;6.35;;;;;;;-143.54;100.00;59916.91;5069441;28;20503;-78
2024/01/02 07:20:14;;;;;;;20.95;6.78;;;;;;;-143.54;100.00;59916.91;5079461;28;20023;-79
2024/01/02 07:22:39;;;;;;;15.32;7.03;;;;;;;-143.54;100.00;59916.91;5076701;28;20013;-78
2024/01/02 07:25:04;;;;;;;18.67;6.75;;;;;;;-143.54;100.00;59916.91;5082181;28;20037;-78
2024/01/02 07:27:30;;;;;;;19.15;7.90;;;;;;;-143.54;100.00;59916.91;5075708;28;20044;-79
2024/01/02 07:29:55;;;;;;;17.00;7.00;;;;;;;-143.54;100.00;59916.91;5073369;28;20081;-78
2024/01/02 07:32:20;;;;;;;18.48;6.63;;;;;;;-143.54;100.00;59916.91;5076969;28;20048;-78
2024/01/02 07:34:46;;;;;;;17.73;6.70;;;;;;;-143.54;100.00;59916.91;5078102;28;20094;-79
2024/01/02 07:37:11;;;;;;;18.70;7.32;;;;;;;-143.54;100.00;59916.91;5073958;28;20104;-79
2024/01/02 07:39:38;;;;;;;18.40;6.82;;;;;;;-143.54;100.00;59916.91;5074106;28;20387;-79
2024/01/02 07:42:05;;;;;;;14.40;6.07;;;;;;;-143.54;100.00;59916.91;5073271;28;20476;-78
2024/01/02 07:44:30;;;;;;;17.67;7.05;;;;;;;-143.54;100.00;59916.91;5073640;28;20032;-78
2024/01/02 07:46:55;;;;;;;17.45;7.38;;;;;;;-143.54;100.00;59916.91;5074866;28;20051;-78
2024/01/02 07:49:21;;;;;;;14.27;7.55;;;;;;;-143.54;100.00;59916.91;5075737;28;20017;-79
2024/01/02 07:51:46;;;;;;;14.02;7.22;;;;;;;-143.54;100.00;59916.91;5081229;28;20427;-78
2024/01/02 07:54:11;;;;;;;17.75;7.38;;;;;;;-143.54;100.00;59916.91;5080907;28;20036;-78
2024/01/02 07:56:37;;;;;;;18.95;7.88;;;;;;;-143.54;100.00;59916.91;5077281;28;20028;-78
2024/01/02 07:59:02;;;;;;;15.90;6.13;;;;;;;-143.54;100.00;59916.91;5079337;28;20034;-79
2024/01/02 08:01:27;;;;;;;16.20;6.70;;;;;;;-143.54;100.00;59916.91;5080291;28;20078;-78
2024/01/02 08:03:53;;;;;;;15.70;6.43;;;;;;;-143.54;100.00;59916.91;5078914;28;20021;-79
2024/01/02 08:06:18;;;;;;;14.85;6.75;;;;;;;-143.54;100.00;59916.91;5078680;28;20025;-78
2024/01/02 08:08:43;;;;;;;13.68;5.80;;;;;;;-143.54;100.00;59916.91;5078671;28;20169;-78
2024/01/02 08:11:09;;;;;;;14.20;5.65;;;;;;;-143.54;100.00;59916.91;5084310;28;20031;-79
2024/01/02 08:13:34;;;;;;;13.60;6.28;;;;;;;-143.54;100.00;59916.91;5077387;28;20028;-78
2024/01/02 08:16:03;;;;;;;15.07;6.45;;;;;;;-143.54;100.00;59916.91;5086265;28;20181;-78
2024/01/02 08:18:29;;;;;;;14.20;5.20;;;;;;;-143.54;100.00;59916.91;5080974;28;20032;-78
2024/01/02 08:20:54;;;;;;;17.23;6.30;;;;;;;-143.54;100.00;59916.91;5076233;28;20461;-78
2024/01/02 08:23:19;;;;;;;17.95;6.95;;;;;;;-143.54;100.00;59916.91;5078096;28;20094;-78
2024/01/02 08:25:45;;;;;;;13.20;6.10;;;;;;;-143.54;100.00;59916.91;5084378;28;20377;-78
2024/01/02 08:28:10;;;;;;;12.90;5.50;;;;;;;-143.54;100.00;59916.91;5080464;28;20455;-78
2024/01/02 08:30:35;;;;;;;15.52;6.05;;;;;;;-143.54;100.00;59916.91;5078097;28;20064;-78
2024/01/02 08:33:01;;;;;;;12.68;6.03;;;;;;;-143.54;100.00;59916.91;5080516;28;20035;-78
2024/01/02 08:35:26;;;;;;;17.95;6.60;;;;;;;-143.54;100.00;59916.91;5082336;28;20392;-78
2024/01/02 08:37:51;;;;;;;13.18;6.03;;;;;;;-143.54;100.00;59916.91;5074454;28;20479;-78
2024/01/02 08:40:17;;;;;;;12.43;6.05;;;;;;;-143.54;100.00;59916.91;5077827;28;20036;-78
2024/01/02 08:42:42;;;;;;;12.98;6.18;;;;;;;-143.54;100.00;59916.91;5080968;28;20395;-78
2024/01/02 08:45:10;;;;;;;16.38;6.68;;;;;;;-143.54;100.00;59916.91;5078737;28;20475;-79
2024/01/02 08:47:38;;;;;;;13.48;6.18;;;;;;;-143.54;100.00;59916.91;5072296;28;20488;-79
2024/01/02 08:50:05;;;;;;;13.18;6.22;;;;;;;-143.54;100.00;59916.91;5074577;28;20103;-79
2024/01/02 08:52:30;;;;;;;10.88;6.07;;;;;;;-143.54;100.00;59916.91;5079063;28;20036;-79
2024/01/02 08:54:56;;;;;;;12.23;6.03;;;;;;;-143.54;100.00;59916.91;5078182;28;20534;-79
2024/01/02 08:57:21;;;;;;;13.45;6.20;;;;;;;-143.54;100.00;59916.91;5076661;28;20021;-79
2024/01/02 08:59:46;;;;;;;10.68;5.57;;;;;;;-143.54;100.00;59916.91;5083188;28;20024;-79
2024/01/02 09:02:12;;;;;;;11.43;5.40;;;;;;;-143.54;100.00;59916.91;5079447;28;20028;-79
2024/01/02 09:04:37;;;;;;;8.23;5.20;;;;;;;-143.54;100.00;59916.91;5081836;28;20082;-79
2024/01/02 09:07:02;;;;;;;10.30;4.78;;;;;;;-143.54;100.00;59916.91;5082265;28;20059;-79
2024/01/02 09:09:28;;;;;;;9.98;5.05;;;;;;;-143.54;100.00;59916.91;5081405;28;20464;-79
2024/01/02 09:11:53;;;;;;;9.35;4.85;;;;;;;-143.54;100.00;59916.91;5083470;28;20036;-79
2024/01/02 09:14:19;;;;;;;9.60;5.07;;;;;;;-143.54;100.00;59916.91;5078281;28;20021;-79
2024/01/02 09:16:45;;;;;;;11.27;5.13;;;;;;;-143.54;100.00;59916.91;5079004;28;20024;-79
2024/01/02 09:19:10;;;;;;;10.65;5.40;;;;;;;-143.54;100.00;59916.91;5080079;28;20533;-79
2024/01/02 09:21:36;;;;;;;8.65;5.28;;;;;;;-143.54;100.00;59916.91;5079626;28;20116;-79
2024/01/02 09:24:01;;;;;;;9.20;4.88;;;;;;;-143.54;100.00;59916.91;5077901;28;20025;-77
2024/01/02 09:26:27;;;;;;;6.75;5.32;;;;;;;-143.54;100.00;59916.91;5084218;28;20051;-78
2024/01/02 09:28:53;;;;;;;8.13;4.78;;;;;;;-143.54;100.00;59916.91;5080098;28;20032;-77
2024/01/02 09:31:19;;;;;;;5.78;4.25;;;;;;;-143.54;100.00;59916.91;5076487;28;20464;-78
2024/01/02 09:33:45;;;;;;;7.75;4.60;;;;;;;-143.54;100.00;59916.91;5086343;28;20077;-78
2024/01/02 09:36:13;;;;;;;7.03;4.05;;;;;;;-143.54;100.00;59916.91;5082712;28;20032;-77
2024/01/02 09:38:39;;;;;;;4.93;4.10;;;;;;;-143.54;100.00;59916.91;5078986;28;20033;-78
2024/01/02 09:41:29;;;;;;;6.00;4.20;;;;;;;-143.54;100.00;59916.91;5083881;28;20047;-78
2024/01/02 09:44:22;;;;;;;6.07;3.92;;;;;;;-143.54;100.00;59916.91;5085081;28;20538;-77
2024/01/02 09:47:16;;;;;;;6.43;3.92;;;;;;;-143.54;100.00;59916.91;5078674;28;20024;-77
2024/01/02 09:50:17;;;;;;;5.32;4.00;;;;;;;-143.54;100.00;59916.91;5079055;28;20028;-78
2024/01/02 09:53:01;;;;;;;5.63;4.30;;;;;;;-143.54;100.00;59916.91;5084845;28;20082;-77
2024/01/02 09:55:37;;;;;;;6.22;4.25;;;;;;;-143.54;100.00;59916.91;5082868;28;20028;-77
2024/01/02 09:58:14;;;;;;;4.10;3.53;;;;;;;-143.54;100.00;59916.91;5077576;28;20028;-78
2024/01/02 10:00:51;;;;;;;4.57;3.42;;;;;;;-143.54;100.00;59916.91;5077543;28;20028;-78
2024/01/02 10:03:27;;;;;;;7.53;3.80;;;;;;;-143.54;100.00;59916.91;5082842;28;20032;-78
2024/01/02 10:06:32;;;;;;;4.68;3.67;;;;;;;-143.54;100.00;59916.91;5072003;28;20082;-78
2024/01/02 10:09:30;;;;;;;4.30;3.30;;;;;;;-143.54;100.00;59916.91;5082871;28;20039;-78
2024/01/02 10:12:07;;;;;;;4.32;3.45;;;;;;;-143.54;100.00;59916.91;5086153;28;20024;-77
2024/01/02 10:14:35;;;;;;;4.00;3.60;;;;;;;-143.54;100.00;59916.91;5083613;28;20036;-77
2024/01/02 10:17:23;;;;;;;3.53;3.13;;;;;;;-143.54;100.00;59916.91;5083825;28;20031;-77
2024/01/02 10:19:58;;;;;;;3.38;3.08;;;;;;;-143.54;100.00;59916.91;5074681;28;20487;-77
2024/01/02 10:22:41;;;;;;;3.42;2.90;;;;;;;-143.54;100.00;59916.91;5079860;28;20025;-77
2024/01/02 10:25:12;;;;;;;3.75;2.67;;;;;;;-143.54;100.00;59916.91;5076714;28;20032;-80
2024/01/02 10:27:56;;;;;;;2.72;2.20;;;;;;;-143.54;100.00;59916.91;5069558;28;20048;-77
2024/01/02 10:30:23;;;;;;;3.65;2.50;;;;;;;-143.54;100.00;59916.91;5074547;28;20032;-77
2024/01/02 10:33:11;;;;;;;2.72;2.00;;;;;;;-143.54;100.00;59916.91;5073877;28;20032;-76
2024/01/02 10:35:43;;;;;;;3.28;2.10;;;;;;;-143.54;100.00;59916.91;5074373;28;20037;-78
2024/01/02 10:38:34;;;;;;;3.05;2.05;;;;;;;-143.54;100.00;59916.91;5074063;28;20539;-77
2024/01/02 10:41:10;;;;;;;2.83;1.70;;;;;;;-143.54;100.00;59916.91;5070096;28;20195;-77
2024/01/02 10:43:57;;;;;;;3.35;1.83;;;;;;;-143.54;100.00;59916.91;5076257;28;20068;-78
2024/01/02 10:46:36;;;;;;;2.83;1.42;;;;;;;-143.54;100.00;59916.91;5071229;28;20052;-78
2024/01/02 10:49:11;;;;;;;3.53;1.58;;;;;;;-143.54;100.00;59916.91;5072555;28;20032;-78
2024/01/02 10:51:39;;;;;;;1.30;1.10;;;;;;;-143.54;100.00;59916.91;5067866;28;20036;-78
2024/01/02 10:54:09;;;;;;;1.30;1.20;;;;;;;-143.54;100.00;59916.91;5071051;28;20103;-77
2024/01/02 10:56:46;;;;;;;1.45;1.00;;;;;;;-143.54;100.00;59916.91;5079385;28;20037;-77
2024/01/02 10:59:33;;;;;;;1.90;1.20;;;;;;;-143.54;100.00;59916.91;5071308;28;20024;-78
2024/01/02 11:02:06;;;;;;;1.73;0.90;;;;;;;-143.54;100.00;59916.91;5071091;28;20070;-78
2024/01/02 11:05:00;;;;;;;1.85;1.00;;;;;;;-143.54;100.00;59916.91;5073780;28;20062;-78
2024/01/02 11:07:34;;;;;;;0.60;0.60;;;;;;;-143.54;100.00;59916.91;5071990;28;20028;-78